createdAt,value
2019-01-12T00:01:40.053Z,11.50
2019-01-12T00:04:36.976Z,10.40
2019-01-12T00:07:15.458Z,10.87
2019-01-12T00:12:33.042Z,12.60
2019-01-12T00:17:53.130Z,12.70
2019-01-12T00:25:51.655Z,10.93
2019-01-12T00:28:39.690Z,12.03
2019-01-12T00:31:27.683Z,11.63
2019-01-12T00:34:15.718Z,12.60
2019-01-12T00:36:45.434Z,11.60
2019-01-12T00:39:33.540Z,12.40
2019-01-12T00:42:21.559Z,11.43
2019-01-12T00:44:51.551Z,12.67
2019-01-12T00:47:39.625Z,13.07
2019-01-12T00:50:27.641Z,12.37
2019-01-12T00:52:56.663Z,12.87
2019-01-12T00:55:44.793Z,13.10
2019-01-12T00:58:32.800Z,12.67
2019-01-12T01:01:02.925Z,13.87
2019-01-12T01:03:50.915Z,13.83
2019-01-12T01:06:38.951Z,13.40
2019-01-12T01:09:26.939Z,14.77
2019-01-12T01:12:05.313Z,14.23
2019-01-12T01:17:25.905Z,14.10
2019-01-12T01:22:52.375Z,13.53
2019-01-12T01:33:27.899Z,15.03
2019-01-12T01:36:16.229Z,14.63
2019-01-12T01:42:01.588Z,14.33
2019-01-12T01:44:49.592Z,13.63
2019-01-12T01:47:37.648Z,13.97
2019-01-12T01:50:25.830Z,13.57
2019-01-12T01:53:13.958Z,13.17
2019-01-12T01:56:01.953Z,12.87
2019-01-12T01:58:31.267Z,13.33
2019-01-12T02:01:19.435Z,13.27
2019-01-12T02:04:07.504Z,13.73
2019-01-12T02:06:36.523Z,14.17
2019-01-12T02:09:24.580Z,13.57
2019-01-12T02:12:12.640Z,14.80
2019-01-12T02:14:54.856Z,13.97
2019-01-12T02:20:15.341Z,14.50
2019-01-12T02:22:44.384Z,14.03
2019-01-12T02:25:32.498Z,14.27
2019-01-12T02:31:28.238Z,13.20
2019-01-12T02:33:58.064Z,13.33
2019-01-12T02:36:27.328Z,12.73
2019-01-12T02:38:56.377Z,10.97
2019-01-12T02:41:26.047Z,10.63
2019-01-12T02:43:57.386Z,12.83
2019-01-12T02:46:26.427Z,13.33
2019-01-12T02:49:00.523Z,12.37
2019-01-12T02:51:29.871Z,12.60
2019-01-12T02:54:02.548Z,13.73
2019-01-12T02:56:32.236Z,11.40
2019-01-12T02:59:10.252Z,13.93
2019-01-12T03:01:39.262Z,12.87
2019-01-12T03:04:14.374Z,13.10
2019-01-12T03:06:43.356Z,13.70
2019-01-12T03:09:14.426Z,14.17
2019-01-12T03:11:43.748Z,13.93
2019-01-12T03:14:16.449Z,15.03
2019-01-12T03:16:45.424Z,14.57
2019-01-12T03:19:18.199Z,14.53
2019-01-12T03:21:48.744Z,15.57
2019-01-12T03:24:21.339Z,13.83
2019-01-12T03:26:51.298Z,14.50
2019-01-12T03:29:24.024Z,13.73
2019-01-12T03:31:53.121Z,14.17
2019-01-12T03:34:25.723Z,15.00
2019-01-12T03:36:55.411Z,14.47
2019-01-12T03:39:30.626Z,14.17
2019-01-12T03:42:00.363Z,13.60
2019-01-12T03:44:30.419Z,13.53
2019-01-12T03:47:18.512Z,13.03
2019-01-12T03:50:06.539Z,11.63
2019-01-12T03:52:54.581Z,12.67
2019-01-12T03:55:42.621Z,13.37
2019-01-12T03:58:44.625Z,12.40
2019-01-12T04:01:20.340Z,10.93
2019-01-12T04:06:27.613Z,12.17
2019-01-12T04:11:45.250Z,11.80
2019-01-12T04:22:43.399Z,9.97
2019-01-12T04:28:00.739Z,8.87
2019-01-12T04:33:18.044Z,10.87
2019-01-12T04:41:33.660Z,9.60
2019-01-12T04:44:12.006Z,9.93
2019-01-12T04:52:20.589Z,12.43
2019-01-12T04:57:51.321Z,13.83
2019-01-12T05:00:39.342Z,15.73
2019-01-12T05:03:27.410Z,13.07
2019-01-12T05:06:34.391Z,14.87
2019-01-12T05:09:22.438Z,15.37
2019-01-12T05:12:10.574Z,15.07
2019-01-12T05:14:58.561Z,14.27
2019-01-12T05:17:46.652Z,13.67
2019-01-12T05:20:34.659Z,13.43
2019-01-12T05:23:41.605Z,12.87
2019-01-12T05:37:33.308Z,11.20
2019-01-12T05:42:50.792Z,11.27
2019-01-12T05:48:28.016Z,10.07
2019-01-12T05:51:16.007Z,10.17
2019-01-12T05:54:04.105Z,9.37
2019-01-12T05:56:52.131Z,9.57
2019-01-12T05:59:54.049Z,9.57
2019-01-12T06:02:29.996Z,9.63
2019-01-12T06:05:18.140Z,8.70
2019-01-12T06:08:06.086Z,8.70
2019-01-12T06:10:54.190Z,9.23
2019-01-12T06:13:42.159Z,8.50
2019-01-12T06:19:29.051Z,9.47
2019-01-12T06:22:28.692Z,10.07
2019-01-12T06:25:06.774Z,9.63
2019-01-12T06:27:54.899Z,9.97
2019-01-12T06:33:13.143Z,9.57
2019-01-12T06:41:22.271Z,10.97
2019-01-12T06:49:43.512Z,12.57
2019-01-12T06:55:01.088Z,11.73
2019-01-12T07:05:40.113Z,14.20
2019-01-12T07:13:52.756Z,16.07
2019-01-12T07:16:31.040Z,17.13
2019-01-12T07:21:49.000Z,16.80
2019-01-12T07:27:06.411Z,19.47
2019-01-12T07:32:27.500Z,18.10
2019-01-12T07:37:45.059Z,18.27
2019-01-12T07:43:02.935Z,20.83
2019-01-12T07:48:26.385Z,22.13
2019-01-12T07:53:44.310Z,22.87
2019-01-12T07:59:02.090Z,18.80
2019-01-12T08:04:19.862Z,21.10
2019-01-12T08:09:29.848Z,19.90
2019-01-12T08:12:39.401Z,19.37
2019-01-12T08:15:27.577Z,16.87
2019-01-12T08:18:15.577Z,16.97
2019-01-12T08:20:45.600Z,18.37
2019-01-12T08:23:15.320Z,18.83
2019-01-12T08:25:45.025Z,16.93
2019-01-12T08:28:33.049Z,16.70
2019-01-12T08:31:21.107Z,19.57
2019-01-12T08:34:09.344Z,16.70
2019-01-12T08:36:39.039Z,16.73
2019-01-12T08:39:27.078Z,17.57
2019-01-12T08:42:19.469Z,14.93
2019-01-12T08:45:08.592Z,15.27
2019-01-12T08:47:37.586Z,15.10
2019-01-12T08:50:25.655Z,14.93
2019-01-12T08:53:34.677Z,14.80
2019-01-12T08:56:03.992Z,14.43
2019-01-12T08:58:33.020Z,16.47
2019-01-12T09:01:02.030Z,15.93
2019-01-12T09:03:50.101Z,14.43
2019-01-12T09:06:19.813Z,17.97
2019-01-12T09:09:07.834Z,16.50
2019-01-12T09:11:55.837Z,18.63
2019-01-12T09:14:44.570Z,14.83
2019-01-12T09:17:32.593Z,14.33
2019-01-12T09:20:01.928Z,12.17
2019-01-12T09:22:49.931Z,14.03
2019-01-12T09:25:38.645Z,13.20
2019-01-12T09:36:05.829Z,14.30
2019-01-12T09:38:35.549Z,14.63
2019-01-12T09:41:04.657Z,13.23
2019-01-12T09:43:34.693Z,13.50
2019-01-12T09:46:04.522Z,13.13
2019-01-12T09:48:52.548Z,12.00
2019-01-12T09:51:41.233Z,15.27
2019-01-12T09:54:29.284Z,15.27
2019-01-12T09:57:17.410Z,15.50
2019-01-12T10:00:24.356Z,15.37
2019-01-12T10:02:54.340Z,14.60
2019-01-12T10:05:43.060Z,14.90
2019-01-12T10:08:31.058Z,16.37
2019-01-12T10:11:00.115Z,14.43
2019-01-12T10:13:48.129Z,15.90
2019-01-12T10:16:36.182Z,14.87
2019-01-12T10:19:24.176Z,17.00
2019-01-12T10:24:53.496Z,17.57
2019-01-12T10:27:41.525Z,17.10
2019-01-12T10:30:12.873Z,16.50
2019-01-12T10:32:42.591Z,16.23
2019-01-12T10:35:13.026Z,16.83
2019-01-12T10:38:01.049Z,16.47
2019-01-12T10:40:30.079Z,15.73
2019-01-12T10:42:59.369Z,16.70
2019-01-12T10:45:48.081Z,15.90
2019-01-12T10:48:18.972Z,14.83
2019-01-12T10:50:50.280Z,16.00
2019-01-12T10:53:19.751Z,15.07
2019-01-12T10:55:49.451Z,14.67
2019-01-12T10:58:56.501Z,16.37
2019-01-12T11:01:44.491Z,15.43
2019-01-12T11:04:32.608Z,14.20
2019-01-12T11:07:20.609Z,14.53
2019-01-12T11:13:07.267Z,14.17
2019-01-12T11:15:56.009Z,13.90
2019-01-12T11:18:44.003Z,13.93
2019-01-12T11:21:32.039Z,12.77
2019-01-12T11:24:01.743Z,13.50
2019-01-12T11:26:31.468Z,13.50
2019-01-12T11:29:02.472Z,13.70
2019-01-12T11:34:11.224Z,13.83
2019-01-12T11:36:40.975Z,13.00
2019-01-12T11:39:13.172Z,14.73
2019-01-12T11:42:22.197Z,13.60
2019-01-12T11:44:51.911Z,12.17
2019-01-12T11:47:21.905Z,14.67
2019-01-12T11:49:51.984Z,14.27
2019-01-12T11:52:21.693Z,12.80
2019-01-12T11:54:51.009Z,15.00
2019-01-12T11:57:20.799Z,13.53
2019-01-12T11:59:49.802Z,14.07
2019-01-12T12:02:37.981Z,13.10
2019-01-12T12:05:26.208Z,15.20
2019-01-12T12:08:15.367Z,14.17
2019-01-12T12:11:04.083Z,14.77
2019-01-12T12:13:52.215Z,16.13
2019-01-12T12:16:42.820Z,14.00
2019-01-12T12:19:30.962Z,14.20
2019-01-12T12:22:18.952Z,13.13
2019-01-12T12:25:07.027Z,14.77
2019-01-12T12:27:55.184Z,14.37
2019-01-12T12:30:32.831Z,13.07
2019-01-12T12:33:03.505Z,14.63
2019-01-12T12:35:37.846Z,13.53
2019-01-12T12:38:07.761Z,13.83
2019-01-12T12:40:41.315Z,15.47
2019-01-12T12:43:10.522Z,12.90
2019-01-12T12:45:43.311Z,13.93
2019-01-12T12:48:14.648Z,13.40
2019-01-12T12:50:46.171Z,12.80
2019-01-12T12:53:15.870Z,13.03
2019-01-12T12:55:49.220Z,13.53
2019-01-12T12:58:18.955Z,13.57
2019-01-12T13:00:51.457Z,13.60
2019-01-12T13:03:21.175Z,13.73
2019-01-12T13:05:54.989Z,12.73
2019-01-12T13:08:25.100Z,11.87
2019-01-12T13:10:59.201Z,11.33
2019-01-12T13:13:28.273Z,13.43
2019-01-12T13:16:01.786Z,14.00
2019-01-12T13:18:31.507Z,12.73
2019-01-12T13:21:05.474Z,12.83
2019-01-12T13:23:35.588Z,14.17
2019-01-12T13:26:08.537Z,12.83
2019-01-12T13:28:37.549Z,11.80
2019-01-12T13:31:12.429Z,12.40
2019-01-12T13:33:42.132Z,11.27
2019-01-12T13:36:15.101Z,9.83
2019-01-12T13:38:44.825Z,11.57
2019-01-12T13:41:18.506Z,10.70
2019-01-12T13:43:48.224Z,9.43
2019-01-12T13:46:20.227Z,9.57
2019-01-12T13:48:50.244Z,11.00
2019-01-12T13:51:22.288Z,8.93
2019-01-12T13:53:52.337Z,8.37
2019-01-12T13:56:25.455Z,8.57
2019-01-12T13:58:55.225Z,9.67
2019-01-12T14:01:28.220Z,8.80
2019-01-12T14:03:58.002Z,10.23
2019-01-12T14:06:30.215Z,9.97
2019-01-12T14:08:59.503Z,9.20
2019-01-12T14:11:32.944Z,8.47
2019-01-12T14:14:01.948Z,7.23
2019-01-12T14:16:34.726Z,8.10
2019-01-12T14:19:04.430Z,7.80
2019-01-12T14:21:37.996Z,7.07
2019-01-12T14:24:07.964Z,5.90
2019-01-12T14:26:40.532Z,6.53
2019-01-12T14:29:09.808Z,6.47
2019-01-12T14:31:43.217Z,5.90
2019-01-12T14:34:14.315Z,7.37
2019-01-12T14:36:47.556Z,6.43
2019-01-12T14:39:16.599Z,6.87
2019-01-12T14:41:48.667Z,5.37
2019-01-12T14:44:17.668Z,6.03
2019-01-12T14:46:51.610Z,6.50
2019-01-12T14:49:41.788Z,5.60
2019-01-12T14:52:29.914Z,5.73
2019-01-12T14:55:19.631Z,5.50
2019-01-12T14:58:07.760Z,5.70
2019-01-12T15:01:14.631Z,5.90
2019-01-12T15:04:02.836Z,5.53
2019-01-12T15:10:03.689Z,5.90
2019-01-12T15:12:51.895Z,5.70
2019-01-12T15:15:22.232Z,5.47
2019-01-12T15:18:12.350Z,5.10
2019-01-12T15:21:01.052Z,4.97
2019-01-12T15:23:49.041Z,5.07
2019-01-12T15:26:37.127Z,4.27
2019-01-12T15:29:25.111Z,4.97
2019-01-12T15:32:18.826Z,3.70
2019-01-12T15:35:06.883Z,5.13
2019-01-12T15:37:55.015Z,5.13
2019-01-12T15:43:11.809Z,4.53
2019-01-12T15:45:59.829Z,4.83
2019-01-12T15:48:48.621Z,5.67
2019-01-12T15:51:18.599Z,5.00
2019-01-12T15:53:48.787Z,5.80
2019-01-12T15:56:18.537Z,6.37
2019-01-12T15:58:48.845Z,7.63
2019-01-12T16:01:18.603Z,7.20
2019-01-12T16:03:48.345Z,7.07
2019-01-12T16:06:17.738Z,7.47
2019-01-12T16:08:47.415Z,6.83
2019-01-12T16:11:17.157Z,6.27
2019-01-12T16:13:47.222Z,7.80
2019-01-12T16:16:16.917Z,8.50
2019-01-12T16:18:46.679Z,8.47
2019-01-12T16:21:16.741Z,8.00
2019-01-12T16:23:48.796Z,8.10
2019-01-12T16:26:18.501Z,7.87
2019-01-12T16:28:51.607Z,7.00
2019-01-12T16:31:20.620Z,6.83
2019-01-12T16:33:53.161Z,6.13
2019-01-12T16:36:23.198Z,5.47
2019-01-12T16:38:59.411Z,6.17
2019-01-12T16:41:30.220Z,6.90
2019-01-12T16:44:00.987Z,5.77
2019-01-12T16:46:30.025Z,5.77
2019-01-12T16:49:03.255Z,5.73
2019-01-12T16:51:32.589Z,5.30
2019-01-12T16:54:07.751Z,4.53
2019-01-12T16:56:37.527Z,5.30
2019-01-12T16:59:14.472Z,5.17
2019-01-12T17:01:44.157Z,6.37
2019-01-12T17:04:13.360Z,5.20
2019-01-12T17:06:43.091Z,5.27
2019-01-12T17:09:18.196Z,4.03
2019-01-12T17:11:47.904Z,3.70
2019-01-12T17:14:22.937Z,3.90
2019-01-12T17:16:52.237Z,4.27
2019-01-12T17:19:21.262Z,3.27
2019-01-12T17:21:50.996Z,3.30
2019-01-12T17:24:24.239Z,3.73
2019-01-12T17:26:53.282Z,3.63
2019-01-12T17:29:28.862Z,3.93
2019-01-12T17:32:01.118Z,3.57
2019-01-12T17:34:50.800Z,3.77
2019-01-12T17:37:17.040Z,3.80
2019-01-12T17:39:46.777Z,3.60
2019-01-12T17:42:17.020Z,3.37
2019-01-12T17:44:46.751Z,3.27
2019-01-12T17:47:16.467Z,3.40
2019-01-12T17:49:45.489Z,3.03
2019-01-12T17:52:15.198Z,2.13
2019-01-12T17:54:45.198Z,3.07
2019-01-12T17:57:14.212Z,2.67
2019-01-12T17:59:43.911Z,2.30
2019-01-12T18:02:13.430Z,2.47
2019-01-12T18:04:45.922Z,3.10
2019-01-12T18:07:15.621Z,3.07
2019-01-12T18:09:48.811Z,4.00
2019-01-12T18:12:18.500Z,3.80
2019-01-12T18:14:52.086Z,5.30
2019-01-12T18:17:22.157Z,5.60
2019-01-12T18:19:54.700Z,6.20
2019-01-12T18:22:24.409Z,20.37
2019-01-12T18:24:58.814Z,11.60
2019-01-12T18:27:28.100Z,32.93
2019-01-12T18:30:00.661Z,21.30
2019-01-12T18:32:29.708Z,11.50
2019-01-12T18:35:04.763Z,12.67
2019-01-12T18:37:34.477Z,12.67
2019-01-12T18:40:11.332Z,12.83
2019-01-12T18:42:41.084Z,12.97
2019-01-12T18:47:58.377Z,13.50
2019-01-12T19:01:46.304Z,12.93
2019-01-12T19:12:14.219Z,13.70
2019-01-12T19:15:02.265Z,13.70
2019-01-12T19:17:50.362Z,13.90
2019-01-12T19:20:38.351Z,13.17
2019-01-12T19:23:45.313Z,12.93
2019-01-12T19:28:56.854Z,12.17
2019-01-12T19:34:14.135Z,12.47
2019-01-12T19:39:32.037Z,11.90
2019-01-12T19:58:55.205Z,11.90
2019-01-12T20:01:43.204Z,12.77
2019-01-12T20:04:32.013Z,11.97
2019-01-12T20:07:20.073Z,10.53
2019-01-12T20:10:08.706Z,11.17
2019-01-12T20:12:38.685Z,13.37
2019-01-12T20:15:10.714Z,12.30
2019-01-12T20:17:39.764Z,13.77
2019-01-12T20:20:11.202Z,11.13
2019-01-12T20:22:40.231Z,14.27
2019-01-12T20:25:28.272Z,14.67
2019-01-12T20:28:16.264Z,13.87
2019-01-12T20:34:04.686Z,14.07
2019-01-12T20:36:52.826Z,14.10
2019-01-12T20:39:40.811Z,15.53
2019-01-12T20:42:28.903Z,15.37
2019-01-12T20:45:17.303Z,14.90
2019-01-12T20:48:09.036Z,13.73
2019-01-12T20:53:24.636Z,14.80
2019-01-12T20:58:41.669Z,14.90
2019-01-12T21:01:29.633Z,14.80
2019-01-12T21:04:17.610Z,15.20
2019-01-12T21:07:05.605Z,15.50
2019-01-12T21:09:53.605Z,15.80
2019-01-12T21:12:41.568Z,15.80
2019-01-12T21:15:48.499Z,15.47
2019-01-12T21:18:17.464Z,17.00
2019-01-12T21:20:47.406Z,17.17
2019-01-12T21:23:54.315Z,17.37
2019-01-12T21:26:42.969Z,16.30
2019-01-12T21:32:11.991Z,16.10
2019-01-12T21:35:00.037Z,16.77
2019-01-12T21:37:30.134Z,14.33
2019-01-12T21:39:59.150Z,16.20
2019-01-12T21:42:49.118Z,16.43
2019-01-12T21:45:48.713Z,14.37
2019-01-12T21:48:26.794Z,16.80
2019-01-12T21:51:14.743Z,12.60
2019-01-12T21:53:44.778Z,15.27
2019-01-12T21:56:32.796Z,15.00
2019-01-12T21:59:02.869Z,13.07
2019-01-12T22:01:50.886Z,14.67
2019-01-12T22:04:20.345Z,13.33
2019-01-12T22:06:50.049Z,14.27
2019-01-12T22:09:38.784Z,14.60
2019-01-12T22:12:26.807Z,13.83
2019-01-12T22:15:14.839Z,14.17
2019-01-12T22:17:44.548Z,14.00
2019-01-12T22:20:32.598Z,14.30
2019-01-12T22:23:20.610Z,13.60
2019-01-12T22:25:49.932Z,14.13
2019-01-12T22:28:19.638Z,15.43
2019-01-12T22:31:07.676Z,14.70
2019-01-12T22:33:37.388Z,15.17
2019-01-12T22:36:25.424Z,15.03
2019-01-12T22:39:13.441Z,15.23
2019-01-12T22:41:42.768Z,14.37
2019-01-12T22:44:30.767Z,18.37
2019-01-12T22:47:18.840Z,14.60
2019-01-12T22:49:48.545Z,16.60
2019-01-12T22:52:17.843Z,16.73
2019-01-12T22:54:55.966Z,16.63
2019-01-12T23:00:47.623Z,16.50
2019-01-12T23:03:35.732Z,15.77
2019-01-12T23:06:05.829Z,15.93
2019-01-12T23:08:54.499Z,15.43
2019-01-12T23:11:42.522Z,16.87
2019-01-12T23:14:11.927Z,16.83
2019-01-12T23:16:59.967Z,16.63
2019-01-12T23:19:47.965Z,17.03
2019-01-12T23:22:35.996Z,18.00
2019-01-12T23:25:24.003Z,15.63
2019-01-12T23:27:53.080Z,15.47
2019-01-12T23:30:41.090Z,17.07
2019-01-12T23:33:29.122Z,16.63
2019-01-12T23:36:17.807Z,17.50
2019-01-12T23:39:05.847Z,18.13
2019-01-12T23:41:35.858Z,17.10
2019-01-12T23:44:05.983Z,18.60
2019-01-12T23:46:54.029Z,18.47
2019-01-12T23:49:42.713Z,18.93
2019-01-12T23:52:12.728Z,18.17
2019-01-12T23:55:12.609Z,17.53
2019-01-12T23:57:51.383Z,19.07
